createdAt,value
2019-04-14T00:00:27.758Z,65.11
2019-04-14T00:01:28.332Z,64.59
2019-04-14T00:02:27.740Z,64.90
2019-04-14T00:03:28.219Z,64.83
2019-04-14T00:04:28.954Z,64.39
2019-04-14T00:05:28.240Z,64.49
2019-04-14T00:06:28.691Z,64.59
2019-04-14T00:07:27.727Z,64.73
2019-04-14T00:08:28.375Z,65.45
2019-04-14T00:09:27.664Z,64.90
2019-04-14T00:10:28.919Z,65.42
2019-04-14T00:11:28.004Z,65.22
2019-04-14T00:12:27.632Z,64.80
2019-04-14T00:13:28.538Z,65.42
2019-04-14T00:14:27.612Z,65.25
2019-04-14T00:15:35.565Z,65.56
2019-04-14T00:16:29.191Z,65.42
2019-04-14T00:17:28.392Z,65.42
2019-04-14T00:18:27.568Z,64.70
2019-04-14T00:19:28.393Z,65.14
2019-04-14T00:20:27.550Z,65.35
2019-04-14T00:21:28.174Z,65.32
2019-04-14T00:22:29.178Z,65.25
2019-04-14T00:23:28.264Z,65.25
2019-04-14T00:24:27.507Z,65.45
2019-04-14T00:25:28.338Z,65.32
2019-04-14T00:26:27.486Z,65.87
2019-04-14T00:27:28.138Z,65.66
2019-04-14T00:28:27.461Z,65.53
2019-04-14T00:29:28.438Z,65.77
2019-04-14T00:30:27.448Z,65.77
2019-04-14T00:31:28.568Z,65.97
2019-04-14T00:32:27.420Z,65.87
2019-04-14T00:33:28.113Z,65.77
2019-04-14T00:34:27.397Z,66.49
2019-04-14T00:35:27.702Z,66.08
2019-04-14T00:36:28.353Z,65.66
2019-04-14T00:37:27.403Z,66.00
2019-04-14T00:38:28.085Z,65.87
2019-04-14T00:39:27.355Z,65.77
2019-04-14T00:40:29.653Z,65.80
2019-04-14T00:41:37.111Z,65.97
2019-04-14T00:42:28.321Z,66.31
2019-04-14T00:43:27.304Z,65.87
2019-04-14T00:44:27.647Z,66.49
2019-04-14T00:45:37.077Z,66.62
2019-04-14T00:46:31.265Z,66.49
2019-04-14T00:47:28.932Z,66.93
2019-04-14T00:48:27.669Z,66.90
2019-04-14T00:49:27.238Z,66.59
2019-04-14T00:50:27.648Z,67.42
2019-04-14T00:51:27.216Z,67.52
2019-04-14T00:52:27.687Z,67.32
2019-04-14T00:53:27.458Z,67.52
2019-04-14T00:54:28.251Z,67.52
2019-04-14T00:55:27.189Z,67.55
2019-04-14T00:56:27.928Z,67.83
2019-04-14T00:57:27.151Z,67.83
2019-04-14T00:58:27.934Z,67.73
2019-04-14T00:59:27.154Z,67.52
2019-04-14T01:00:27.591Z,67.83
2019-04-14T01:01:27.110Z,67.63
2019-04-14T01:02:27.520Z,67.94
2019-04-14T01:03:27.092Z,68.15
2019-04-14T01:04:27.311Z,68.38
2019-04-14T01:05:27.071Z,68.18
2019-04-14T01:06:27.357Z,68.15
2019-04-14T01:07:28.277Z,68.04
2019-04-14T01:08:27.066Z,67.66
2019-04-14T01:09:28.274Z,68.59
2019-04-14T01:10:27.852Z,68.46
2019-04-14T01:11:27.123Z,68.80
2019-04-14T01:12:27.772Z,68.56
2019-04-14T01:13:26.995Z,68.77
2019-04-14T01:14:27.738Z,68.98
2019-04-14T01:15:26.964Z,69.08
2019-04-14T01:16:28.051Z,69.08
2019-04-14T01:17:26.944Z,68.87
2019-04-14T01:18:27.636Z,68.87
2019-04-14T01:19:26.919Z,69.39
2019-04-14T01:20:27.468Z,68.98
2019-04-14T01:21:26.900Z,69.18
2019-04-14T01:22:27.128Z,69.08
2019-04-14T01:23:28.207Z,69.08
2019-04-14T01:24:27.134Z,68.87
2019-04-14T01:25:28.116Z,68.98
2019-04-14T01:26:26.850Z,69.39
2019-04-14T01:27:27.785Z,69.60
2019-04-14T01:28:26.824Z,69.29
2019-04-14T01:29:27.698Z,69.18
2019-04-14T01:30:26.805Z,69.08
2019-04-14T01:31:27.366Z,69.70
2019-04-14T01:32:26.780Z,69.80
2019-04-14T01:33:27.271Z,70.01
2019-04-14T01:34:28.060Z,70.46
2019-04-14T01:35:27.104Z,70.36
2019-04-14T01:36:27.691Z,70.42
2019-04-14T01:37:26.937Z,70.84
2019-04-14T01:38:27.606Z,70.84
2019-04-14T01:39:26.743Z,71.18
2019-04-14T01:40:27.100Z,70.73
2019-04-14T01:41:26.694Z,71.04
2019-04-14T01:42:26.806Z,70.73
2019-04-14T01:43:27.723Z,71.04
2019-04-14T01:44:26.653Z,71.15
2019-04-14T01:45:27.500Z,71.25
2019-04-14T01:46:30.001Z,71.39
2019-04-14T01:47:27.646Z,71.91
2019-04-14T01:48:27.967Z,73.36
2019-04-14T01:49:26.941Z,73.36
2019-04-14T01:50:27.686Z,73.36
2019-04-14T01:51:26.683Z,73.36
2019-04-14T01:52:27.435Z,73.36
2019-04-14T01:53:27.167Z,73.67
2019-04-14T01:54:27.694Z,73.67
2019-04-14T01:55:26.613Z,73.67
2019-04-14T01:56:27.346Z,73.88
2019-04-14T01:57:26.517Z,73.88
2019-04-14T01:58:27.155Z,74.50
2019-04-14T01:59:26.498Z,74.71
2019-04-14T02:00:27.006Z,74.81
2019-04-14T02:01:26.475Z,75.02
2019-04-14T02:02:27.027Z,75.43
2019-04-14T02:03:26.452Z,75.32
2019-04-14T02:04:26.792Z,75.43
2019-04-14T02:05:26.437Z,75.88
2019-04-14T02:06:26.662Z,75.53
2019-04-14T02:07:27.555Z,75.74
2019-04-14T02:08:26.400Z,75.95
2019-04-14T02:09:27.212Z,76.05
2019-04-14T02:10:26.388Z,75.98
2019-04-14T02:11:26.991Z,76.40
2019-04-14T02:12:26.358Z,76.50
2019-04-14T02:13:26.832Z,76.50
2019-04-14T02:14:27.673Z,75.95
2019-04-14T02:15:26.581Z,76.05
2019-04-14T02:16:36.304Z,76.09
2019-04-14T02:17:28.402Z,76.78
2019-04-14T02:18:27.250Z,77.12
2019-04-14T02:19:26.422Z,76.92
2019-04-14T02:20:27.246Z,77.12
2019-04-14T02:21:26.267Z,77.02
2019-04-14T02:22:26.670Z,77.12
2019-04-14T02:23:26.246Z,77.85
2019-04-14T02:24:26.399Z,78.06
2019-04-14T02:25:27.405Z,78.06
2019-04-14T02:26:26.299Z,77.85
2019-04-14T02:27:27.408Z,77.95
2019-04-14T02:28:26.471Z,77.95
2019-04-14T02:29:27.530Z,77.64
2019-04-14T02:30:34.030Z,78.06
2019-04-14T02:31:55.009Z,78.37
2019-04-14T02:33:52.122Z,78.06
2019-04-14T02:35:59.676Z,78.82
2019-04-14T02:36:58.729Z,78.68
2019-04-14T02:38:05.648Z,78.78
2019-04-14T02:38:57.147Z,78.89
2019-04-14T02:39:57.468Z,79.44
2019-04-14T02:41:15.751Z,79.96
2019-04-14T02:42:12.568Z,79.65
2019-04-14T02:44:01.636Z,80.47
2019-04-14T02:44:55.399Z,80.47
2019-04-14T02:45:59.676Z,80.68
2019-04-14T02:46:53.450Z,80.89
2019-04-14T02:48:15.164Z,80.89
2019-04-14T02:48:55.345Z,81.20
2019-04-14T02:50:01.786Z,80.83
2019-04-14T02:50:59.520Z,81.30
2019-04-14T02:51:59.418Z,81.41
2019-04-14T02:52:52.066Z,81.20
2019-04-14T02:55:59.496Z,81.76
2019-04-14T02:56:58.818Z,81.76
2019-04-14T02:57:59.011Z,81.72
2019-04-14T02:59:05.826Z,81.62
2019-04-14T02:59:58.991Z,81.97
2019-04-14T03:01:00.143Z,81.87
2019-04-14T03:02:10.030Z,82.39
2019-04-14T03:02:47.282Z,82.28
2019-04-14T03:03:48.900Z,82.39
2019-04-14T03:05:02.521Z,82.18
2019-04-14T03:05:59.338Z,82.39
2019-04-14T03:07:02.647Z,82.18
2019-04-14T03:07:51.625Z,82.39
2019-04-14T03:08:59.023Z,82.49
2019-04-14T03:10:03.295Z,82.90
2019-04-14T03:11:51.341Z,82.80
2019-04-14T03:13:01.730Z,82.90
2019-04-14T03:13:52.100Z,82.65
2019-04-14T03:14:53.676Z,82.90
2019-04-14T03:15:56.731Z,83.11
2019-04-14T03:17:07.355Z,83.11
2019-04-14T03:18:02.301Z,83.22
2019-04-14T03:20:05.311Z,82.90
2019-04-14T03:21:48.855Z,83.22
2019-04-14T03:22:51.812Z,82.80
2019-04-14T03:24:37.398Z,83.22
2019-04-14T03:25:55.310Z,83.32
2019-04-14T03:26:54.545Z,83.73
2019-04-14T03:27:54.752Z,83.84
2019-04-14T03:29:13.187Z,83.42
2019-04-14T03:30:04.919Z,84.25
2019-04-14T03:33:18.514Z,84.05
2019-04-14T03:34:17.583Z,83.94
2019-04-14T03:37:31.980Z,84.05
2019-04-14T03:37:53.931Z,84.15
2019-04-14T03:39:51.917Z,84.15
2019-04-14T03:40:58.891Z,84.36
2019-04-14T03:41:54.779Z,84.25
2019-04-14T03:42:54.194Z,84.36
2019-04-14T03:43:46.365Z,84.25
2019-04-14T03:44:48.618Z,84.15
2019-04-14T03:46:04.395Z,84.05
2019-04-14T03:48:02.147Z,84.05
2019-04-14T03:49:07.380Z,84.15
2019-04-14T03:49:54.388Z,84.46
2019-04-14T03:50:52.483Z,84.67
2019-04-14T03:54:44.149Z,84.88
2019-04-14T03:55:34.725Z,84.67
2019-04-14T03:56:27.009Z,84.77
2019-04-14T03:57:27.098Z,84.56
2019-04-14T03:58:25.240Z,84.56
2019-04-14T03:59:26.132Z,85.02
2019-04-14T04:00:25.226Z,85.85
2019-04-14T04:01:25.807Z,85.53
2019-04-14T04:02:25.203Z,85.53
2019-04-14T04:03:26.079Z,85.64
2019-04-14T04:04:25.201Z,85.81
2019-04-14T04:05:25.974Z,85.33
2019-04-14T04:06:25.152Z,84.88
2019-04-14T04:07:25.700Z,85.71
2019-04-14T04:08:25.128Z,85.60
2019-04-14T04:09:25.742Z,85.71
2019-04-14T04:10:25.106Z,85.53
2019-04-14T04:11:25.812Z,85.33
2019-04-14T04:12:25.086Z,85.74
2019-04-14T04:13:25.959Z,85.29
2019-04-14T04:14:25.059Z,85.95
2019-04-14T04:15:25.633Z,85.22
2019-04-14T04:16:25.038Z,85.43
2019-04-14T04:17:25.452Z,85.64
2019-04-14T04:18:25.022Z,85.95
2019-04-14T04:19:25.159Z,86.26
2019-04-14T04:20:26.312Z,85.95
2019-04-14T04:21:24.988Z,86.16
2019-04-14T04:22:26.004Z,86.16
2019-04-14T04:23:24.969Z,86.99
2019-04-14T04:24:27.745Z,87.09
2019-04-14T04:25:24.942Z,87.19
2019-04-14T04:26:25.719Z,87.09
2019-04-14T04:27:24.926Z,87.19
2019-04-14T04:28:25.634Z,87.19
2019-04-14T04:29:24.902Z,86.99
2019-04-14T04:30:25.394Z,86.99
2019-04-14T04:31:24.880Z,86.47
2019-04-14T04:32:25.396Z,86.68
2019-04-14T04:33:24.858Z,86.78
2019-04-14T04:34:25.120Z,87.19
2019-04-14T04:35:26.002Z,87.19
2019-04-14T04:36:24.877Z,86.64
2019-04-14T04:37:25.682Z,86.33
2019-04-14T04:38:24.828Z,85.91
2019-04-14T04:39:25.781Z,86.33
2019-04-14T04:40:24.782Z,86.22
2019-04-14T04:41:25.383Z,86.33
2019-04-14T04:42:24.764Z,85.91
2019-04-14T04:43:25.461Z,87.26
2019-04-14T04:44:24.858Z,86.78
2019-04-14T04:45:25.662Z,87.19
2019-04-14T04:46:24.712Z,87.19
2019-04-14T04:47:25.195Z,87.19
2019-04-14T04:48:24.695Z,87.40
2019-04-14T04:49:27.372Z,87.40
2019-04-14T04:50:25.925Z,87.19
2019-04-14T04:51:24.666Z,87.19
2019-04-14T04:52:25.708Z,87.09
2019-04-14T04:53:24.650Z,87.30
2019-04-14T04:54:25.688Z,87.92
2019-04-14T04:55:24.630Z,88.02
2019-04-14T04:56:25.440Z,88.13
2019-04-14T04:57:24.601Z,88.85
2019-04-14T04:58:24.589Z,88.59
2019-04-14T04:59:25.562Z,88.44
2019-04-14T05:00:24.566Z,88.85
2019-04-14T05:01:25.303Z,88.54
2019-04-14T05:02:24.553Z,88.65
2019-04-14T05:03:25.416Z,88.75
2019-04-14T05:04:24.522Z,89.17
2019-04-14T05:05:25.273Z,88.85
2019-04-14T05:06:24.820Z,88.85
2019-04-14T05:07:25.249Z,88.23
2019-04-14T05:08:24.475Z,88.44
2019-04-14T05:09:25.286Z,88.54
2019-04-14T05:10:24.467Z,88.44
2019-04-14T05:11:25.113Z,88.75
2019-04-14T05:12:24.452Z,88.85
2019-04-14T05:13:24.874Z,89.48
2019-04-14T05:14:24.418Z,89.37
2019-04-14T05:15:24.772Z,89.31
2019-04-14T05:16:24.403Z,89.48
2019-04-14T05:17:25.463Z,89.42
2019-04-14T05:18:24.796Z,89.27
2019-04-14T05:19:30.301Z,89.06
2019-04-14T05:20:25.367Z,89.89
2019-04-14T05:21:25.552Z,90.04
2019-04-14T05:22:24.752Z,90.45
2019-04-14T05:23:25.534Z,90.97
2019-04-14T05:24:24.563Z,90.87
2019-04-14T05:25:25.348Z,90.87
2019-04-14T05:26:24.472Z,91.70
2019-04-14T05:27:25.329Z,92.22
2019-04-14T05:28:24.568Z,92.22
2019-04-14T05:29:25.317Z,92.22
2019-04-14T05:30:24.348Z,92.94
2019-04-14T05:31:27.483Z,93.10
2019-04-14T05:32:24.223Z,93.30
2019-04-14T05:33:25.050Z,92.43
2019-04-14T05:34:24.214Z,92.84
2019-04-14T05:35:24.887Z,92.53
2019-04-14T05:36:24.178Z,92.84
2019-04-14T05:37:24.766Z,93.30
2019-04-14T05:38:24.196Z,92.88
2019-04-14T05:39:24.335Z,93.05
2019-04-14T05:40:24.134Z,93.37
2019-04-14T05:41:24.436Z,92.68
2019-04-14T05:42:25.962Z,92.99
2019-04-14T05:43:37.006Z,92.78
2019-04-14T05:44:25.384Z,93.10
2019-04-14T05:45:24.135Z,92.88
2019-04-14T05:46:25.166Z,92.84
2019-04-14T05:47:24.112Z,92.32
2019-04-14T05:48:25.110Z,93.20
2019-04-14T05:49:30.247Z,92.88
2019-04-14T05:50:25.044Z,93.05
2019-04-14T05:51:24.852Z,92.99
2019-04-14T05:52:25.138Z,93.30
2019-04-14T05:53:24.125Z,93.10
2019-04-14T05:54:25.210Z,93.20
2019-04-14T05:55:24.234Z,93.05
2019-04-14T05:56:25.175Z,93.05
2019-04-14T05:57:24.233Z,92.94
2019-04-14T05:58:23.960Z,92.26
2019-04-14T05:59:24.251Z,92.63
2019-04-14T06:00:23.930Z,92.43
2019-04-14T06:01:24.807Z,92.99
2019-04-14T06:02:24.767Z,93.20
2019-04-14T06:03:23.889Z,92.78
2019-04-14T06:04:24.360Z,93.30
2019-04-14T06:05:23.870Z,93.41
2019-04-14T06:06:23.861Z,92.78
2019-04-14T06:07:23.850Z,93.16
2019-04-14T06:08:23.840Z,92.94
2019-04-14T06:09:23.834Z,93.26
2019-04-14T06:10:23.820Z,93.47
2019-04-14T06:11:23.808Z,93.41
2019-04-14T06:12:23.800Z,93.62
2019-04-14T06:13:23.785Z,92.99
2019-04-14T06:14:23.828Z,93.16
2019-04-14T06:15:23.768Z,93.05
2019-04-14T06:16:23.756Z,93.16
2019-04-14T06:17:23.748Z,93.41
2019-04-14T06:18:23.732Z,94.13
2019-04-14T06:19:23.743Z,93.88
2019-04-14T06:20:23.715Z,93.16
2019-04-14T06:21:23.700Z,93.78
2019-04-14T06:22:23.694Z,94.20
2019-04-14T06:23:23.706Z,93.37
2019-04-14T06:24:23.672Z,93.10
2019-04-14T06:25:23.657Z,93.16
2019-04-14T06:26:23.647Z,93.05
2019-04-14T06:27:23.632Z,93.26
2019-04-14T06:28:23.634Z,93.37
2019-04-14T06:29:23.622Z,93.99
2019-04-14T06:30:23.605Z,93.05
2019-04-14T06:31:23.604Z,93.37
2019-04-14T06:32:23.600Z,92.94
2019-04-14T06:33:23.575Z,93.05
2019-04-14T06:34:23.575Z,92.74
2019-04-14T06:35:23.562Z,92.74
2019-04-14T06:36:23.543Z,92.94
2019-04-14T06:37:23.534Z,93.26
2019-04-14T06:38:23.520Z,93.16
2019-04-14T06:39:23.510Z,93.16
2019-04-14T06:40:23.498Z,93.05
2019-04-14T06:41:23.494Z,92.99
2019-04-14T06:42:23.478Z,93.30
2019-04-14T06:43:23.464Z,93.47
2019-04-14T06:44:23.455Z,94.40
2019-04-14T06:45:23.506Z,94.30
2019-04-14T06:46:23.435Z,94.55
2019-04-14T06:47:23.434Z,94.09
2019-04-14T06:48:23.418Z,94.34
2019-04-14T06:49:23.398Z,94.30
2019-04-14T06:50:23.392Z,94.55
2019-04-14T06:51:23.380Z,94.71
2019-04-14T06:52:23.373Z,94.55
2019-04-14T06:53:23.360Z,94.55
2019-04-14T06:54:23.355Z,94.09
2019-04-14T06:55:23.343Z,94.30
2019-04-14T06:56:23.482Z,94.20
2019-04-14T06:57:23.314Z,94.03
2019-04-14T06:58:23.306Z,93.20
2019-04-14T06:59:23.295Z,93.20
2019-04-14T07:00:23.285Z,94.40
2019-04-14T07:01:23.275Z,94.34
2019-04-14T07:02:23.268Z,94.45
2019-04-14T07:03:23.260Z,94.61
2019-04-14T07:04:23.254Z,94.86
2019-04-14T07:05:23.228Z,94.82
2019-04-14T07:06:23.218Z,94.13
2019-04-14T07:07:23.211Z,94.40
2019-04-14T07:08:23.202Z,93.99
2019-04-14T07:09:23.194Z,94.40
2019-04-14T07:10:23.180Z,94.71
2019-04-14T07:11:23.175Z,95.28
2019-04-14T07:12:23.156Z,95.28
2019-04-14T07:13:23.149Z,95.07
2019-04-14T07:14:23.133Z,95.34
2019-04-14T07:15:23.126Z,95.65
2019-04-14T07:16:23.114Z,95.44
2019-04-14T07:17:23.102Z,94.82
2019-04-14T07:18:23.092Z,94.82
2019-04-14T07:19:23.086Z,94.61
2019-04-14T07:20:23.068Z,94.40
2019-04-14T07:21:23.066Z,94.30
2019-04-14T07:22:23.052Z,94.71
2019-04-14T07:23:23.045Z,94.82
2019-04-14T07:24:23.025Z,95.54
2019-04-14T07:25:23.016Z,95.19
2019-04-14T07:26:23.002Z,95.75
2019-04-14T07:27:22.996Z,95.54
2019-04-14T07:28:22.981Z,95.75
2019-04-14T07:29:22.973Z,95.50
2019-04-14T07:30:22.966Z,95.34
2019-04-14T07:31:22.950Z,95.50
2019-04-14T07:32:22.943Z,95.09
2019-04-14T07:33:22.936Z,94.88
2019-04-14T07:34:22.920Z,94.30
2019-04-14T07:35:22.908Z,94.36
2019-04-14T07:36:22.900Z,94.15
2019-04-14T07:37:22.884Z,93.78
2019-04-14T07:38:22.879Z,94.78
2019-04-14T07:39:22.874Z,94.67
2019-04-14T07:40:22.864Z,93.95
2019-04-14T07:41:22.847Z,94.78
2019-04-14T07:42:22.834Z,95.50
2019-04-14T07:43:22.822Z,95.71
2019-04-14T07:44:22.813Z,95.40
2019-04-14T07:45:22.812Z,95.40
2019-04-14T07:46:22.797Z,95.87
2019-04-14T07:47:22.780Z,95.67
2019-04-14T07:48:22.776Z,95.19
2019-04-14T07:49:22.760Z,95.50
2019-04-14T07:50:22.755Z,95.29
2019-04-14T07:51:22.745Z,95.61
2019-04-14T07:52:22.725Z,95.71
2019-04-14T07:53:22.711Z,95.40
2019-04-14T07:54:22.709Z,95.61
2019-04-14T07:55:22.707Z,95.81
2019-04-14T07:56:22.688Z,95.36
2019-04-14T07:57:22.676Z,95.46
2019-04-14T07:58:22.666Z,96.19
2019-04-14T07:59:22.656Z,95.98
2019-04-14T08:00:22.644Z,96.08
2019-04-14T08:01:22.641Z,95.98
2019-04-14T08:02:22.628Z,96.03
2019-04-14T08:03:22.613Z,95.56
2019-04-14T08:04:22.612Z,95.04
2019-04-14T08:05:22.588Z,95.04
2019-04-14T08:06:22.582Z,95.46
2019-04-14T08:07:22.566Z,95.46
2019-04-14T08:08:22.575Z,95.04
2019-04-14T08:09:22.550Z,94.94
2019-04-14T08:10:22.537Z,95.67
2019-04-14T08:11:22.532Z,95.46
2019-04-14T08:12:22.511Z,95.67
2019-04-14T08:13:22.506Z,95.04
2019-04-14T08:14:22.495Z,95.67
2019-04-14T08:15:22.483Z,95.25
2019-04-14T08:16:22.474Z,95.46
2019-04-14T08:17:22.459Z,95.67
2019-04-14T08:18:22.448Z,95.98
2019-04-14T08:19:22.446Z,95.77
2019-04-14T08:20:27.788Z,95.93
2019-04-14T08:21:23.436Z,95.62
2019-04-14T08:22:22.413Z,95.00
2019-04-14T08:23:22.403Z,94.17
2019-04-14T08:24:22.391Z,94.48
2019-04-14T08:25:22.382Z,94.58
2019-04-14T08:26:22.365Z,95.20
2019-04-14T08:27:22.359Z,94.79
2019-04-14T08:28:22.352Z,94.79
2019-04-14T08:29:22.360Z,95.51
2019-04-14T08:30:22.326Z,95.72
2019-04-14T08:31:22.319Z,95.72
2019-04-14T08:32:22.306Z,95.51
2019-04-14T08:33:22.293Z,95.72
2019-04-14T08:34:22.294Z,95.37
2019-04-14T08:35:22.277Z,95.57
2019-04-14T08:36:22.265Z,94.85
2019-04-14T08:37:22.253Z,93.91
2019-04-14T08:38:22.243Z,94.23
2019-04-14T08:39:22.243Z,94.68
2019-04-14T08:40:22.229Z,95.37
2019-04-14T08:41:22.208Z,95.16
2019-04-14T08:42:22.199Z,95.68
2019-04-14T08:43:22.196Z,95.06
2019-04-14T08:44:22.181Z,94.02
2019-04-14T08:45:22.175Z,93.60
2019-04-14T08:46:22.161Z,94.02
2019-04-14T08:47:22.146Z,94.64
2019-04-14T08:48:22.142Z,94.43
2019-04-14T08:49:22.130Z,94.39
2019-04-14T08:50:22.125Z,94.60
2019-04-14T08:51:22.110Z,93.77
2019-04-14T08:52:24.145Z,93.15
2019-04-14T08:53:22.087Z,93.91
2019-04-14T08:54:22.069Z,94.08
2019-04-14T08:55:22.060Z,93.77
2019-04-14T08:56:22.053Z,93.98
2019-04-14T08:57:22.040Z,94.04
2019-04-14T08:58:22.045Z,93.77
2019-04-14T08:59:22.020Z,92.90
2019-04-14T09:00:22.012Z,93.73
2019-04-14T09:01:21.998Z,93.83
2019-04-14T09:02:21.996Z,94.04
2019-04-14T09:03:21.981Z,93.83
2019-04-14T09:04:21.970Z,94.04
2019-04-14T09:05:21.964Z,94.14
2019-04-14T09:06:21.939Z,94.45
2019-04-14T09:07:21.930Z,95.28
2019-04-14T09:08:21.923Z,94.04
2019-04-14T09:09:21.910Z,94.14
2019-04-14T09:10:21.949Z,94.04
2019-04-14T09:11:21.893Z,93.98
2019-04-14T09:12:21.879Z,94.24
2019-04-14T09:13:21.884Z,94.56
2019-04-14T09:14:21.854Z,94.51
2019-04-14T09:15:21.848Z,94.76
2019-04-14T09:16:21.844Z,94.97
2019-04-14T09:17:21.840Z,94.45
2019-04-14T09:18:21.820Z,93.99
2019-04-14T09:19:21.807Z,93.89
2019-04-14T09:20:21.798Z,94.10
2019-04-14T09:21:21.790Z,94.76
2019-04-14T09:22:21.770Z,93.99
2019-04-14T09:23:21.770Z,94.24
2019-04-14T09:24:21.755Z,93.99
2019-04-14T09:25:21.750Z,93.06
2019-04-14T09:26:21.734Z,93.58
2019-04-14T09:27:21.726Z,93.79
2019-04-14T09:28:21.774Z,94.10
2019-04-14T09:29:21.701Z,93.89
2019-04-14T09:30:21.688Z,93.16
2019-04-14T09:31:21.693Z,92.96
2019-04-14T09:32:21.670Z,93.99
2019-04-14T09:33:21.667Z,93.89
2019-04-14T09:34:21.640Z,93.79
2019-04-14T09:35:21.633Z,93.99
2019-04-14T09:36:21.624Z,93.99
2019-04-14T09:37:21.618Z,93.33
2019-04-14T09:38:21.606Z,93.74
2019-04-14T09:39:21.591Z,93.43
2019-04-14T09:40:21.576Z,93.95
2019-04-14T09:41:21.574Z,92.71
2019-04-14T09:42:21.561Z,92.81
2019-04-14T09:43:21.558Z,93.95
2019-04-14T09:44:21.536Z,93.85
2019-04-14T09:45:21.535Z,92.91
2019-04-14T09:46:21.517Z,93.12
2019-04-14T09:47:21.504Z,92.91
2019-04-14T09:48:21.498Z,92.40
2019-04-14T09:49:21.486Z,92.61
2019-04-14T09:50:21.472Z,92.50
2019-04-14T09:51:21.468Z,92.81
2019-04-14T09:52:21.451Z,92.71
2019-04-14T09:53:21.454Z,92.40
2019-04-14T09:54:21.433Z,92.61
2019-04-14T09:55:23.493Z,92.81
2019-04-14T09:56:21.409Z,92.50
2019-04-14T09:57:21.394Z,92.61
2019-04-14T09:58:21.402Z,93.23
2019-04-14T09:59:21.373Z,93.23
2019-04-14T10:00:21.368Z,92.50
2019-04-14T10:01:21.353Z,92.71
2019-04-14T10:02:21.353Z,92.50
2019-04-14T10:03:21.335Z,92.91
2019-04-14T10:04:21.321Z,92.81
2019-04-14T10:05:21.312Z,92.61
2019-04-14T10:06:21.312Z,92.36
2019-04-14T10:07:21.294Z,92.46
2019-04-14T10:08:21.281Z,92.46
2019-04-14T10:09:21.272Z,92.67
2019-04-14T10:10:21.263Z,92.67
2019-04-14T10:11:21.250Z,92.57
2019-04-14T10:12:21.244Z,91.99
2019-04-14T10:13:21.230Z,92.77
2019-04-14T10:14:21.216Z,92.67
2019-04-14T10:15:21.270Z,92.77
2019-04-14T10:16:21.194Z,92.97
2019-04-14T10:17:21.190Z,92.57
2019-04-14T10:18:21.175Z,92.67
2019-04-14T10:19:21.163Z,92.50
2019-04-14T10:20:21.148Z,92.36
2019-04-14T10:21:21.138Z,92.87
2019-04-14T10:22:33.151Z,92.36
2019-04-14T10:23:22.120Z,92.46
2019-04-14T10:24:21.107Z,92.57
2019-04-14T10:25:21.096Z,92.57
2019-04-14T10:26:21.082Z,92.50
2019-04-14T10:27:21.073Z,92.67
2019-04-14T10:28:21.062Z,92.46
2019-04-14T10:29:21.053Z,92.57
2019-04-14T10:30:21.054Z,92.52
2019-04-14T10:31:21.045Z,92.57
2019-04-14T10:32:21.029Z,92.87
2019-04-14T10:33:21.041Z,92.32
2019-04-14T10:34:21.003Z,92.46
2019-04-14T10:35:21.034Z,92.72
2019-04-14T10:36:20.988Z,92.67
2019-04-14T10:37:20.981Z,92.67
2019-04-14T10:38:20.965Z,92.57
2019-04-14T10:39:20.950Z,92.87
2019-04-14T10:40:20.937Z,92.46
2019-04-14T10:41:20.936Z,92.57
2019-04-14T10:42:20.926Z,91.53
2019-04-14T10:43:20.908Z,91.22
2019-04-14T10:44:20.894Z,91.94
2019-04-14T10:45:20.887Z,92.36
2019-04-14T10:46:20.883Z,92.36
2019-04-14T10:47:20.868Z,91.94
2019-04-14T10:48:20.848Z,92.00
2019-04-14T10:49:20.846Z,92.36
2019-04-14T10:50:30.629Z,92.67
2019-04-14T10:51:29.876Z,92.57
2019-04-14T10:52:21.811Z,92.77
2019-04-14T10:53:20.807Z,92.63
2019-04-14T10:54:20.801Z,92.46
2019-04-14T10:55:20.794Z,91.84
2019-04-14T10:56:20.931Z,92.15
2019-04-14T10:57:20.762Z,92.21
2019-04-14T10:58:20.746Z,92.05
2019-04-14T10:59:20.748Z,91.94
2019-04-14T11:00:20.724Z,92.36
2019-04-14T11:01:20.718Z,92.05
2019-04-14T11:02:20.705Z,92.57
2019-04-14T11:03:20.696Z,92.46
2019-04-14T11:04:20.688Z,92.87
2019-04-14T11:05:20.672Z,92.32
2019-04-14T11:06:20.656Z,92.63
2019-04-14T11:07:20.658Z,92.52
2019-04-14T11:08:20.636Z,92.72
2019-04-14T11:09:20.696Z,92.72
2019-04-14T11:10:20.623Z,92.72
2019-04-14T11:11:20.630Z,92.63
2019-04-14T11:12:20.602Z,92.42
2019-04-14T11:13:20.594Z,92.93
2019-04-14T11:14:20.578Z,92.52
2019-04-14T11:15:20.564Z,92.52
2019-04-14T11:16:20.553Z,93.24
2019-04-14T11:17:20.572Z,94.28
2019-04-14T11:18:20.545Z,93.04
2019-04-14T11:19:20.524Z,92.72
2019-04-14T11:20:20.509Z,92.72
2019-04-14T11:21:20.501Z,92.63
2019-04-14T11:22:20.488Z,92.42
2019-04-14T11:23:20.480Z,92.72
2019-04-14T11:24:20.479Z,92.83
2019-04-14T11:25:20.460Z,92.63
2019-04-14T11:26:20.453Z,92.63
2019-04-14T11:27:20.444Z,92.99
2019-04-14T11:28:20.429Z,92.48
2019-04-14T11:29:20.414Z,92.58
2019-04-14T11:30:20.406Z,93.51
2019-04-14T11:31:20.400Z,92.64
2019-04-14T11:32:20.386Z,92.85
2019-04-14T11:33:20.372Z,92.54
2019-04-14T11:34:20.365Z,91.09
2019-04-14T11:35:20.355Z,91.61
2019-04-14T11:36:20.356Z,92.13
2019-04-14T11:37:20.328Z,92.44
2019-04-14T11:38:20.322Z,92.13
2019-04-14T11:39:20.319Z,92.23
2019-04-14T11:40:20.303Z,92.44
2019-04-14T11:41:20.307Z,92.13
2019-04-14T11:42:20.290Z,92.13
2019-04-14T11:43:20.271Z,92.23
2019-04-14T11:44:20.260Z,91.92
2019-04-14T11:45:20.246Z,92.44
2019-04-14T11:46:20.245Z,92.50
2019-04-14T11:47:20.232Z,92.64
2019-04-14T11:48:20.233Z,92.44
2019-04-14T11:49:20.206Z,92.33
2019-04-14T11:50:20.197Z,92.13
2019-04-14T11:51:20.192Z,92.91
2019-04-14T11:52:20.181Z,92.29
2019-04-14T11:53:20.164Z,91.88
2019-04-14T11:54:20.149Z,91.42
2019-04-14T11:55:20.135Z,91.01
2019-04-14T11:56:20.131Z,91.42
2019-04-14T11:57:20.120Z,91.52
2019-04-14T11:58:20.123Z,90.91
2019-04-14T11:59:20.095Z,91.63
2019-04-14T12:00:20.090Z,91.17
2019-04-14T12:01:20.080Z,90.35
2019-04-14T12:02:20.066Z,90.45
2019-04-14T12:03:20.054Z,90.76
2019-04-14T12:04:20.045Z,90.04
2019-04-14T12:05:20.040Z,89.94
2019-04-14T12:06:20.024Z,89.48
2019-04-14T12:07:20.016Z,89.48
2019-04-14T12:08:20.000Z,88.96
2019-04-14T12:09:20.001Z,88.35
2019-04-14T12:10:19.979Z,88.72
2019-04-14T12:11:19.964Z,88.82
2019-04-14T12:12:19.956Z,87.32
2019-04-14T12:13:19.946Z,87.27
2019-04-14T12:14:19.977Z,87.17
2019-04-14T12:15:19.933Z,86.66
2019-04-14T12:16:19.916Z,85.83
2019-04-14T12:17:19.906Z,86.55
2019-04-14T12:18:19.894Z,86.15
2019-04-14T12:19:19.880Z,86.45
2019-04-14T12:20:19.871Z,86.93
2019-04-14T12:21:19.861Z,86.61
2019-04-14T12:22:19.848Z,86.58
2019-04-14T12:23:19.842Z,86.31
2019-04-14T12:24:19.830Z,85.55
2019-04-14T12:25:19.826Z,85.07
2019-04-14T12:26:19.806Z,86.68
2019-04-14T12:27:19.805Z,85.34
2019-04-14T12:28:19.782Z,83.49
2019-04-14T12:29:19.776Z,83.76
2019-04-14T12:30:20.196Z,82.56
2019-04-14T12:31:19.762Z,81.63
2019-04-14T12:32:19.747Z,80.71
2019-04-14T12:33:19.735Z,81.33
2019-04-14T12:34:19.720Z,80.98
2019-04-14T12:35:19.703Z,81.19
2019-04-14T12:36:19.699Z,81.60
2019-04-14T12:37:19.688Z,82.53
2019-04-14T12:38:19.682Z,81.67
2019-04-14T12:39:19.666Z,81.05
2019-04-14T12:40:19.658Z,82.18
2019-04-14T12:41:19.830Z,80.80
2019-04-14T12:42:19.641Z,80.08
2019-04-14T12:43:19.628Z,79.77
2019-04-14T12:44:19.618Z,78.09
2019-04-14T12:45:19.605Z,77.23
2019-04-14T12:46:19.595Z,76.42
2019-04-14T12:47:19.580Z,75.76
2019-04-14T12:48:19.571Z,76.21
2019-04-14T12:49:19.582Z,77.55
2019-04-14T12:50:19.553Z,78.06
2019-04-14T12:51:20.631Z,77.95
2019-04-14T12:52:21.988Z,77.44
2019-04-14T12:53:19.575Z,77.75
2019-04-14T12:54:19.508Z,76.10
2019-04-14T12:55:19.496Z,76.17
2019-04-14T12:56:19.503Z,76.28
2019-04-14T12:57:19.466Z,77.40
2019-04-14T12:58:19.485Z,76.38
2019-04-14T12:59:19.457Z,76.07
2019-04-14T13:00:20.071Z,75.90
2019-04-14T13:01:19.434Z,76.35
2019-04-14T13:02:19.417Z,77.85
2019-04-14T13:03:19.410Z,77.75
2019-04-14T13:04:19.400Z,77.65
2019-04-14T13:05:19.382Z,75.66
2019-04-14T13:06:19.376Z,77.34
2019-04-14T13:07:19.365Z,77.65
2019-04-14T13:08:19.365Z,77.03
2019-04-14T13:09:19.344Z,75.80
2019-04-14T13:10:19.330Z,76.72